createdAt,value
2022-12-14T00:01:58.868Z,21.10
2022-12-14T00:04:26.870Z,20.88
2022-12-14T00:06:54.891Z,21.55
2022-12-14T00:09:22.796Z,22.02
2022-12-14T00:11:50.727Z,21.23
2022-12-14T00:14:19.928Z,20.52
2022-12-14T00:16:48.703Z,21.75
2022-12-14T00:19:16.654Z,21.75
2022-12-14T00:21:44.481Z,21.50
2022-12-14T00:24:12.536Z,22.08
2022-12-14T00:26:40.509Z,21.40
2022-12-14T00:29:08.459Z,20.70
2022-12-14T00:31:37.956Z,21.00
2022-12-14T00:34:05.965Z,21.10
2022-12-14T00:36:33.976Z,21.02
2022-12-14T00:39:01.905Z,21.70
2022-12-14T00:41:30.174Z,21.00
2022-12-14T00:43:58.253Z,20.58
2022-12-14T00:46:26.129Z,22.02
2022-12-14T00:48:55.500Z,20.92
2022-12-14T00:51:23.418Z,20.48
2022-12-14T00:53:51.283Z,20.33
2022-12-14T00:56:19.218Z,22.02
2022-12-14T00:58:51.629Z,20.10
2022-12-14T01:01:19.755Z,21.33
2022-12-14T01:03:47.805Z,20.42
2022-12-14T01:06:20.243Z,21.27
2022-12-14T01:08:48.390Z,21.13
2022-12-14T01:11:16.769Z,20.35
2022-12-14T01:13:44.633Z,22.10
2022-12-14T01:16:17.490Z,16.38
2022-12-14T01:18:45.480Z,21.08
2022-12-14T01:21:15.628Z,21.98
2022-12-14T01:23:46.244Z,22.55
2022-12-14T01:26:15.519Z,20.70
2022-12-14T01:28:43.991Z,20.77
2022-12-14T01:31:14.257Z,19.85
2022-12-14T01:33:42.931Z,21.33
2022-12-14T01:36:13.220Z,19.52
2022-12-14T01:38:41.352Z,22.40
2022-12-14T01:41:23.336Z,19.48
2022-12-14T01:43:53.244Z,21.33
2022-12-14T01:46:30.639Z,21.40
2022-12-14T01:49:03.195Z,21.80
2022-12-14T01:51:32.842Z,21.60
2022-12-14T01:54:03.764Z,21.75
2022-12-14T01:56:36.933Z,19.70
2022-12-14T01:59:12.538Z,21.25
2022-12-14T02:01:40.659Z,21.98
2022-12-14T02:04:09.500Z,20.95
2022-12-14T02:06:41.627Z,22.67
2022-12-14T02:09:12.456Z,21.60
2022-12-14T02:11:45.744Z,21.00
2022-12-14T02:14:14.073Z,21.50
2022-12-14T02:16:42.368Z,21.45
2022-12-14T02:19:10.553Z,22.08
2022-12-14T02:22:02.728Z,22.67
2022-12-14T02:24:56.693Z,22.17
2022-12-14T02:30:11.906Z,21.08
2022-12-14T02:33:15.443Z,21.88
2022-12-14T02:35:47.745Z,22.15
2022-12-14T02:38:29.214Z,22.37
2022-12-14T02:41:07.761Z,22.38
2022-12-14T02:43:45.915Z,20.35
2022-12-14T02:46:25.168Z,22.23
2022-12-14T02:49:02.738Z,22.75
2022-12-14T02:51:45.473Z,20.85
2022-12-14T02:54:18.465Z,21.58
2022-12-14T02:56:51.514Z,22.90
2022-12-14T02:59:20.505Z,22.55
2022-12-14T03:01:52.283Z,22.15
2022-12-14T03:04:20.505Z,23.77
2022-12-14T03:06:57.852Z,22.00
2022-12-14T03:09:29.179Z,22.15
2022-12-14T03:11:59.697Z,22.73
2022-12-14T03:14:31.549Z,23.80
2022-12-14T03:17:06.148Z,22.30
2022-12-14T03:19:38.782Z,22.27
2022-12-14T03:22:10.944Z,23.58
2022-12-14T03:24:42.839Z,23.98
2022-12-14T03:27:15.376Z,24.98
2022-12-14T03:29:49.608Z,25.87
2022-12-14T03:32:23.736Z,24.70
2022-12-14T03:34:59.017Z,24.83
2022-12-14T03:37:33.610Z,23.30
2022-12-14T03:40:01.793Z,23.05
2022-12-14T03:42:40.053Z,23.70
2022-12-14T03:45:17.193Z,24.08
2022-12-14T03:47:57.364Z,23.02
2022-12-14T03:50:31.088Z,21.90
2022-12-14T03:53:04.075Z,23.73
2022-12-14T03:55:38.217Z,23.00
2022-12-14T03:58:31.325Z,23.38
2022-12-14T04:01:07.625Z,23.25
2022-12-14T04:03:46.583Z,23.92
2022-12-14T04:06:23.007Z,23.15
2022-12-14T04:08:57.493Z,23.00
2022-12-14T04:11:46.765Z,22.95
2022-12-14T04:14:36.220Z,24.48
2022-12-14T04:17:27.723Z,21.70
2022-12-14T04:20:04.228Z,23.45
2022-12-14T04:22:37.157Z,22.15
2022-12-14T04:25:27.903Z,24.33
2022-12-14T04:28:00.884Z,22.70
2022-12-14T04:30:32.158Z,23.02
2022-12-14T04:33:23.802Z,24.15
2022-12-14T04:35:55.144Z,24.95
2022-12-14T04:38:30.799Z,25.40
2022-12-14T04:41:03.996Z,23.90
2022-12-14T04:46:09.230Z,22.88
2022-12-14T04:48:41.644Z,24.60
2022-12-14T04:51:16.110Z,16.88
2022-12-14T04:53:47.588Z,23.17
2022-12-14T04:56:21.502Z,23.88
2022-12-14T04:58:49.831Z,24.25
2022-12-14T05:01:31.917Z,24.58
2022-12-14T05:04:08.263Z,24.38
2022-12-14T05:06:50.162Z,22.92
2022-12-14T05:09:24.110Z,24.70
2022-12-14T05:11:58.748Z,23.98
2022-12-14T05:14:35.385Z,24.50
2022-12-14T05:17:08.935Z,24.63
2022-12-14T05:19:38.189Z,24.83
2022-12-14T05:22:09.680Z,24.25
2022-12-14T05:24:37.627Z,23.95
2022-12-14T05:27:06.119Z,23.70
2022-12-14T05:29:34.376Z,24.92
2022-12-14T05:32:03.108Z,24.48
2022-12-14T05:34:31.866Z,22.50
2022-12-14T05:36:59.836Z,24.80
2022-12-14T05:39:29.220Z,25.30
2022-12-14T05:41:57.120Z,23.83
2022-12-14T05:44:25.239Z,24.55
2022-12-14T05:46:53.976Z,24.33
2022-12-14T05:49:21.866Z,25.10
2022-12-14T05:51:50.199Z,24.33
2022-12-14T05:54:18.145Z,23.92
2022-12-14T05:56:47.649Z,24.08
2022-12-14T05:59:16.480Z,24.65
2022-12-14T06:01:44.952Z,23.20
2022-12-14T06:04:18.675Z,24.92
2022-12-14T06:06:46.788Z,23.88
2022-12-14T06:09:16.861Z,23.90
2022-12-14T06:11:46.267Z,23.55
2022-12-14T06:14:16.891Z,23.02
2022-12-14T06:16:46.631Z,24.20
2022-12-14T06:19:15.653Z,23.20
2022-12-14T06:21:44.838Z,22.75
2022-12-14T06:24:14.252Z,25.02
2022-12-14T06:26:42.419Z,23.25
2022-12-14T06:29:17.775Z,23.58
2022-12-14T06:31:49.413Z,23.80
2022-12-14T06:34:18.559Z,24.67
2022-12-14T06:36:46.906Z,23.90
2022-12-14T06:39:17.032Z,23.02
2022-12-14T06:41:45.193Z,23.48
2022-12-14T06:44:15.045Z,25.83
2022-12-14T06:47:32.969Z,24.77
2022-12-14T06:50:03.292Z,25.58
2022-12-14T06:52:31.396Z,24.73
2022-12-14T06:55:01.584Z,25.75
2022-12-14T06:57:34.769Z,24.35
2022-12-14T07:00:04.933Z,24.80
2022-12-14T07:02:33.293Z,23.73
2022-12-14T07:05:03.193Z,25.45
2022-12-14T07:07:33.524Z,25.70
2022-12-14T07:10:01.499Z,25.17
2022-12-14T07:12:29.786Z,24.45
2022-12-14T07:14:57.824Z,25.80
2022-12-14T07:17:25.683Z,25.20
2022-12-14T07:19:54.255Z,24.52
2022-12-14T07:22:23.608Z,24.45
2022-12-14T07:24:51.736Z,25.45
2022-12-14T07:27:20.584Z,25.35
2022-12-14T07:29:48.474Z,24.65
2022-12-14T07:32:16.418Z,23.42
2022-12-14T07:34:44.401Z,24.65
2022-12-14T07:37:14.253Z,24.25
2022-12-14T07:39:43.574Z,23.70
2022-12-14T07:42:12.970Z,25.15
2022-12-14T07:44:48.191Z,23.45
2022-12-14T07:47:16.780Z,23.92
2022-12-14T07:49:45.336Z,22.95
2022-12-14T07:52:16.773Z,22.27
2022-12-14T07:54:45.971Z,22.13
2022-12-14T07:57:14.273Z,25.20
2022-12-14T07:59:42.322Z,23.65
2022-12-14T08:02:12.225Z,23.88
2022-12-14T08:04:44.078Z,23.25
2022-12-14T08:07:13.397Z,23.55
2022-12-14T08:09:41.289Z,23.75
2022-12-14T08:12:10.766Z,21.33
2022-12-14T08:14:38.878Z,22.33
2022-12-14T08:17:07.227Z,22.73
2022-12-14T08:19:35.414Z,23.05
2022-12-14T08:22:03.314Z,21.38
2022-12-14T08:24:35.509Z,22.48
2022-12-14T08:27:03.862Z,23.43
2022-12-14T08:29:33.593Z,22.75
2022-12-14T08:32:01.427Z,23.20
2022-12-14T08:34:29.622Z,21.85
2022-12-14T08:36:57.527Z,22.63
2022-12-14T08:39:25.993Z,21.00
2022-12-14T08:41:53.945Z,23.48
2022-12-14T08:44:21.878Z,22.23
2022-12-14T08:46:51.345Z,22.70
2022-12-14T08:49:19.250Z,22.65
2022-12-14T08:51:47.336Z,22.85
2022-12-14T08:54:15.323Z,21.75
2022-12-14T08:56:43.255Z,21.90
2022-12-14T08:59:29.921Z,22.95
2022-12-14T09:02:00.627Z,20.83
2022-12-14T09:04:28.958Z,21.30
2022-12-14T09:06:57.493Z,21.95
2022-12-14T09:09:25.598Z,21.48
2022-12-14T09:11:53.746Z,21.23
2022-12-14T09:14:21.658Z,20.35
2022-12-14T09:16:49.648Z,20.08
2022-12-14T09:19:18.900Z,19.80
2022-12-14T09:21:46.837Z,19.33
2022-12-14T09:24:14.764Z,19.70
2022-12-14T09:26:42.634Z,17.77
2022-12-14T09:29:16.162Z,17.48
2022-12-14T09:31:45.575Z,18.48
2022-12-14T09:34:13.690Z,18.52
2022-12-14T09:36:43.252Z,18.17
2022-12-14T09:39:14.653Z,17.63
2022-12-14T09:42:00.539Z,16.98
2022-12-14T09:44:45.101Z,17.65
2022-12-14T09:47:21.755Z,18.17
2022-12-14T09:49:55.632Z,17.63
2022-12-14T09:52:35.851Z,18.00
2022-12-14T09:55:17.017Z,18.95
2022-12-14T09:57:48.644Z,18.08
2022-12-14T10:00:20.164Z,19.17
2022-12-14T10:03:17.234Z,19.85
2022-12-14T10:06:02.170Z,18.73
2022-12-14T10:08:36.762Z,18.95
2022-12-14T10:11:11.488Z,17.40
2022-12-14T10:13:51.460Z,15.05
2022-12-14T10:16:29.233Z,14.32
2022-12-14T10:19:18.286Z,14.63
2022-12-14T10:21:49.552Z,18.48
2022-12-14T10:24:23.910Z,17.55
2022-12-14T10:26:54.047Z,16.77
2022-12-14T10:29:33.228Z,15.75
2022-12-14T10:32:12.531Z,16.35
2022-12-14T10:34:43.570Z,16.45
2022-12-14T10:37:26.176Z,16.63
2022-12-14T10:40:11.476Z,16.20
2022-12-14T10:42:49.283Z,16.40
2022-12-14T10:45:41.543Z,15.55
2022-12-14T10:48:32.630Z,15.60
2022-12-14T10:51:04.067Z,16.70
2022-12-14T10:53:41.138Z,15.82
2022-12-14T10:56:17.762Z,15.18
2022-12-14T10:58:45.684Z,15.45
2022-12-14T11:01:15.694Z,16.05
2022-12-14T11:03:44.947Z,14.93
2022-12-14T11:06:17.464Z,16.02
2022-12-14T11:08:47.793Z,16.00
2022-12-14T11:11:20.085Z,15.38
2022-12-14T11:13:53.502Z,15.25
2022-12-14T11:16:35.487Z,15.93
2022-12-14T11:19:06.296Z,17.70
2022-12-14T11:21:36.404Z,17.52
2022-12-14T11:24:05.462Z,17.08
2022-12-14T11:26:37.722Z,16.23
2022-12-14T11:29:08.365Z,17.05
2022-12-14T11:31:39.823Z,16.67
2022-12-14T11:34:22.858Z,15.90
2022-12-14T11:36:51.303Z,15.85
2022-12-14T11:39:23.668Z,17.38
2022-12-14T11:42:02.102Z,14.90
2022-12-14T11:44:33.542Z,16.00
2022-12-14T11:47:05.972Z,14.23
2022-12-14T11:49:37.058Z,15.05
2022-12-14T11:52:12.104Z,14.27
2022-12-14T11:54:41.960Z,12.88
2022-12-14T11:57:24.721Z,13.75
2022-12-14T11:59:55.282Z,8.57
2022-12-14T12:02:28.419Z,13.13
2022-12-14T12:05:01.392Z,12.70
2022-12-14T12:07:33.597Z,7.32
2022-12-14T12:10:04.740Z,11.75
2022-12-14T12:12:34.254Z,13.13
2022-12-14T12:15:02.416Z,12.88
2022-12-14T12:17:42.259Z,11.95
2022-12-14T12:20:23.190Z,11.95
2022-12-14T12:22:56.560Z,11.27
2022-12-14T12:25:29.697Z,10.93
2022-12-14T12:28:08.439Z,11.55
2022-12-14T12:30:42.617Z,12.20
2022-12-14T12:33:21.405Z,11.15
2022-12-14T12:35:53.637Z,11.13
2022-12-14T12:38:31.673Z,12.07
2022-12-14T12:41:06.500Z,12.80
2022-12-14T12:43:42.677Z,13.13
2022-12-14T12:46:20.887Z,11.82
2022-12-14T12:48:51.558Z,11.52
2022-12-14T12:51:25.376Z,10.38
2022-12-14T12:53:57.443Z,10.77
2022-12-14T12:56:30.429Z,12.35
2022-12-14T12:59:02.307Z,11.48
2022-12-14T13:01:35.226Z,11.38
2022-12-14T13:04:07.279Z,11.13
2022-12-14T13:06:43.056Z,10.82
2022-12-14T13:09:19.604Z,10.05
2022-12-14T13:11:49.014Z,9.93
2022-12-14T13:14:28.203Z,10.77
2022-12-14T13:17:02.707Z,10.10
2022-12-14T13:19:50.361Z,9.38
2022-12-14T13:22:24.067Z,10.13
2022-12-14T13:24:58.840Z,10.00
2022-12-14T13:27:50.180Z,10.85
2022-12-14T13:30:35.922Z,12.70
2022-12-14T13:33:33.354Z,10.70
2022-12-14T13:36:26.177Z,12.40
2022-12-14T13:39:27.077Z,12.05
2022-12-14T13:42:02.685Z,11.60
2022-12-14T13:44:45.619Z,12.38
2022-12-14T13:47:20.597Z,14.23
2022-12-14T13:50:26.943Z,13.07
2022-12-14T13:52:46.614Z,13.68
2022-12-14T13:55:29.480Z,12.45
2022-12-14T13:58:15.341Z,13.07
2022-12-14T14:01:08.564Z,13.10
2022-12-14T14:03:47.875Z,12.37
2022-12-14T14:06:20.281Z,14.20
2022-12-14T14:08:50.966Z,15.20
2022-12-14T14:11:57.375Z,13.10
2022-12-14T14:14:41.897Z,13.70
2022-12-14T14:17:16.671Z,13.82
2022-12-14T14:19:49.688Z,13.43
2022-12-14T14:22:23.271Z,13.30
2022-12-14T14:24:57.835Z,12.25
2022-12-14T14:27:28.813Z,13.10
2022-12-14T14:29:57.980Z,12.45
2022-12-14T14:32:39.294Z,12.07
2022-12-14T14:35:23.368Z,12.00
2022-12-14T14:38:00.257Z,12.98
2022-12-14T14:40:51.297Z,13.25
2022-12-14T14:43:28.628Z,13.27
2022-12-14T14:45:59.782Z,14.13
2022-12-14T14:48:34.776Z,14.25
2022-12-14T14:51:19.078Z,15.00
2022-12-14T14:53:50.377Z,16.25
2022-12-14T14:56:38.394Z,14.82
2022-12-14T14:59:39.221Z,15.35
2022-12-14T15:02:29.656Z,14.77
2022-12-14T15:05:17.383Z,15.55
2022-12-14T15:07:48.515Z,14.57
2022-12-14T15:10:25.408Z,15.05
2022-12-14T15:12:55.929Z,15.70
2022-12-14T15:15:30.323Z,13.73
2022-12-14T15:18:16.789Z,15.27
2022-12-14T15:20:54.609Z,14.57
2022-12-14T15:23:25.061Z,15.70
2022-12-14T15:26:03.802Z,15.02
2022-12-14T15:28:32.169Z,15.88
2022-12-14T15:31:01.139Z,14.38
2022-12-14T15:33:32.454Z,14.38
2022-12-14T15:36:05.361Z,14.45
2022-12-14T15:38:36.887Z,14.15
2022-12-14T15:41:12.718Z,14.40
2022-12-14T15:43:44.923Z,13.57
2022-12-14T15:46:17.351Z,14.02
2022-12-14T15:48:56.584Z,15.20
2022-12-14T15:51:30.087Z,15.23
2022-12-14T15:54:02.594Z,13.20
2022-12-14T15:56:34.083Z,13.87
2022-12-14T15:59:15.419Z,12.57
2022-12-14T16:01:53.601Z,12.45
2022-12-14T16:04:25.797Z,13.45
2022-12-14T16:07:00.533Z,14.68
2022-12-14T16:09:36.433Z,12.63
2022-12-14T16:14:44.161Z,13.45
2022-12-14T16:17:14.575Z,12.23
2022-12-14T16:19:58.729Z,13.57
2022-12-14T16:22:28.944Z,13.88
2022-12-14T16:25:17.871Z,14.82
2022-12-14T16:27:49.996Z,13.35
2022-12-14T16:30:22.974Z,14.23
2022-12-14T16:32:53.056Z,12.30
2022-12-14T16:35:25.724Z,14.52
2022-12-14T16:37:56.513Z,13.63
2022-12-14T16:40:35.951Z,14.57
2022-12-14T16:43:06.689Z,14.80
2022-12-14T16:46:17.484Z,13.70
2022-12-14T16:49:01.999Z,13.50
2022-12-14T16:51:58.746Z,13.00
2022-12-14T16:54:25.420Z,12.25
2022-12-14T16:56:59.151Z,11.93
2022-12-14T16:59:30.219Z,12.70
2022-12-14T17:01:58.720Z,11.70
2022-12-14T17:04:35.942Z,11.93
2022-12-14T17:07:05.291Z,12.60
2022-12-14T17:09:35.459Z,12.30
2022-12-14T17:12:14.148Z,11.85
2022-12-14T17:14:49.436Z,12.52
2022-12-14T17:17:22.302Z,12.10
2022-12-14T17:19:50.511Z,11.13
2022-12-14T17:22:24.118Z,12.05
2022-12-14T17:27:22.886Z,10.95
2022-12-14T17:29:50.965Z,12.27
2022-12-14T17:32:19.224Z,11.70
2022-12-14T17:34:47.711Z,12.73
2022-12-14T17:37:17.850Z,12.40
2022-12-14T17:39:45.811Z,12.35
2022-12-14T17:42:15.760Z,12.63
2022-12-14T17:44:51.902Z,12.23
2022-12-14T17:47:19.780Z,11.65
2022-12-14T17:49:47.708Z,12.25
2022-12-14T17:52:20.075Z,11.85
2022-12-14T17:54:48.300Z,11.65
2022-12-14T17:57:18.340Z,12.00
2022-12-14T17:59:48.390Z,13.10
2022-12-14T18:02:28.713Z,11.85
2022-12-14T18:04:56.960Z,12.30
2022-12-14T18:07:25.116Z,11.32
2022-12-14T18:09:54.473Z,11.45
2022-12-14T18:12:24.339Z,10.77
2022-12-14T18:14:54.496Z,12.07
2022-12-14T18:17:23.006Z,10.98
2022-12-14T18:19:51.098Z,12.13
2022-12-14T18:22:19.413Z,12.48
2022-12-14T18:24:49.309Z,11.90
2022-12-14T18:27:17.334Z,12.45
2022-12-14T18:29:45.262Z,11.35
2022-12-14T18:32:15.609Z,10.82
2022-12-14T18:34:43.712Z,11.23
2022-12-14T18:37:11.693Z,11.52
2022-12-14T18:39:39.876Z,10.65
2022-12-14T18:42:07.854Z,12.30
2022-12-14T18:44:35.775Z,11.85
2022-12-14T18:47:33.140Z,12.25
2022-12-14T18:49:53.160Z,11.68
2022-12-14T18:52:21.868Z,12.07
2022-12-14T18:54:51.814Z,13.20
2022-12-14T18:57:19.783Z,11.15
2022-12-14T18:59:47.685Z,12.77
2022-12-14T19:02:15.994Z,11.88
2022-12-14T19:04:48.515Z,11.93
2022-12-14T19:07:17.960Z,11.73
2022-12-14T19:09:45.852Z,12.23
2022-12-14T19:12:13.823Z,12.35
2022-12-14T19:14:41.800Z,12.35
2022-12-14T19:17:09.889Z,12.98
2022-12-14T19:19:42.646Z,11.65
2022-12-14T19:22:12.607Z,12.40
2022-12-14T19:24:41.985Z,11.48
2022-12-14T19:27:10.043Z,11.75
2022-12-14T19:29:38.063Z,12.30
2022-12-14T19:32:06.335Z,13.52
2022-12-14T19:34:34.567Z,13.52
2022-12-14T19:37:02.482Z,12.52
2022-12-14T19:39:30.388Z,12.35
2022-12-14T19:41:59.640Z,11.25
2022-12-14T19:44:28.024Z,11.90
2022-12-14T19:46:56.108Z,11.68
2022-12-14T19:49:24.152Z,11.80
2022-12-14T19:51:52.134Z,11.95
2022-12-14T19:54:20.077Z,12.60
2022-12-14T19:56:49.279Z,13.10
2022-12-14T19:59:18.979Z,14.48
2022-12-14T20:01:48.432Z,13.35
2022-12-14T20:04:17.104Z,12.98
2022-12-14T20:06:45.339Z,12.85
2022-12-14T20:09:15.820Z,13.55
2022-12-14T20:11:44.735Z,12.35
2022-12-14T20:14:13.776Z,12.48
2022-12-14T20:16:43.476Z,11.65
2022-12-14T20:19:13.407Z,14.52
2022-12-14T20:21:41.944Z,12.02
2022-12-14T20:24:11.279Z,11.88
2022-12-14T20:26:39.834Z,12.82
2022-12-14T20:29:08.617Z,12.63
2022-12-14T20:31:37.349Z,12.85
2022-12-14T20:34:08.110Z,12.30
2022-12-14T20:36:36.226Z,12.63
2022-12-14T20:39:07.419Z,11.38
2022-12-14T20:41:35.534Z,11.35
2022-12-14T20:44:04.120Z,12.38
2022-12-14T20:46:35.827Z,12.60
2022-12-14T20:49:07.406Z,11.40
2022-12-14T20:51:37.393Z,11.73
2022-12-14T20:54:07.063Z,11.85
2022-12-14T20:56:36.014Z,10.88
2022-12-14T20:59:04.976Z,11.25
2022-12-14T21:01:33.234Z,12.05
2022-12-14T21:04:04.453Z,11.50
2022-12-14T21:06:38.948Z,11.13
2022-12-14T21:09:09.791Z,11.02
2022-12-14T21:11:57.874Z,11.75
2022-12-14T21:14:28.791Z,11.60
2022-12-14T21:16:58.029Z,10.32
2022-12-14T21:19:26.725Z,10.18
2022-12-14T21:21:56.408Z,10.90
2022-12-14T21:25:00.531Z,11.43
2022-12-14T21:27:17.449Z,10.88
2022-12-14T21:29:45.608Z,11.27
2022-12-14T21:32:14.271Z,11.43
2022-12-14T21:34:43.288Z,10.60
2022-12-14T21:37:12.726Z,11.68
2022-12-14T21:39:41.164Z,10.70
2022-12-14T21:42:12.956Z,10.65
2022-12-14T21:44:42.173Z,10.45
2022-12-14T21:47:12.884Z,10.52
2022-12-14T21:49:42.956Z,10.60
2022-12-14T21:52:14.220Z,9.00
2022-12-14T21:54:43.210Z,9.63
2022-12-14T21:57:32.462Z,9.27
2022-12-14T22:00:00.875Z,9.63
2022-12-14T22:02:29.621Z,10.48
2022-12-14T22:04:57.900Z,10.60
2022-12-14T22:07:32.465Z,10.90
2022-12-14T22:10:00.482Z,11.60
2022-12-14T22:12:28.550Z,10.65
2022-12-14T22:14:56.476Z,10.02
2022-12-14T22:17:24.745Z,9.75
2022-12-14T22:19:54.423Z,8.40
2022-12-14T22:22:22.451Z,9.02
2022-12-14T22:24:52.076Z,8.90
2022-12-14T22:27:21.226Z,8.63
2022-12-14T22:29:49.128Z,8.63
2022-12-14T22:32:17.090Z,9.30
2022-12-14T22:34:45.240Z,8.40
2022-12-14T22:37:16.546Z,7.95
2022-12-14T22:39:44.554Z,6.90
2022-12-14T22:42:17.549Z,5.63
2022-12-14T22:44:45.564Z,4.80
2022-12-14T22:47:13.617Z,5.13
2022-12-14T22:49:41.626Z,4.55
2022-12-14T22:52:09.765Z,5.22
2022-12-14T22:54:39.435Z,4.40
2022-12-14T22:57:11.097Z,4.53
2022-12-14T22:59:45.217Z,4.53
2022-12-14T23:02:13.371Z,3.55
2022-12-14T23:04:41.684Z,4.40
2022-12-14T23:07:09.906Z,4.10
2022-12-14T23:09:55.050Z,4.28
2022-12-14T23:12:40.653Z,4.00
2022-12-14T23:15:28.438Z,3.95
2022-12-14T23:18:14.371Z,4.28
2022-12-14T23:20:59.882Z,3.50
2022-12-14T23:23:45.390Z,4.15
2022-12-14T23:26:30.858Z,3.88
2022-12-14T23:29:16.452Z,3.95
2022-12-14T23:32:03.535Z,4.22
2022-12-14T23:34:48.980Z,5.32
2022-12-14T23:37:34.507Z,5.55
2022-12-14T23:40:19.812Z,6.07
2022-12-14T23:43:05.293Z,5.70
2022-12-14T23:45:50.799Z,6.07
2022-12-14T23:48:37.727Z,6.35
2022-12-14T23:51:23.371Z,6.55
2022-12-14T23:54:09.292Z,6.40
2022-12-14T23:56:55.136Z,6.32
2022-12-14T23:59:40.616Z,4.65
